الصفحة الرئيسية
METAR-TAF:

METAR-TAF

مطار :

Kosrae, مايكرونيزيا

دائرة عرض: 05-21N, خط طول: 162-57E, ارتفاع: 3 متر

مراقبة الطقس الحالي

تاريخ ووقت الإصدار 21ساعات و 19 دقيقة قبل الساعة 02:50UTC
ريح 12 عقدة من الشمال الشرقي
درجة الحرارة 30°درجة مئوية
الرطوبة 75%
ضغط 1007 hPa
الرؤية: 16.1 كم
غيوم مفككة على ارتفاع 2000 قدم, مزن ركامية عمودية.
غيوم مفككة على ارتفاع 13000 قدم
ملبد بالغيوم على ارتفاع 30000 قدم

METAR: PTSA 280250Z 05012KT 10SM BKN020TCU BKN130 OVC300 30/25 A2975 RMK TCU NE LAST

زمن: 11:09 (00:09 UTC)

توقعات

تاريخ ووقت الإصدار 30 دقيقة قبل الساعة 23:39UTC
التوقعات صالحة من28 الساعة 00 UTC إلى 28 الساعة 24 UTC
ريح 8 عقدة من الشرق/الشمال الشرقي
الرؤية: 10 كم
غيوم متفرقة على ارتفاع 1800 قدم
غيوم مفككة على ارتفاع 10000 قدم
زخات في الجوار
مؤقت
من 28 الساعة 00 UTC إلى 28 الساعة 04 UTC
غيوم مفككة على ارتفاع 1800 قدم
زخات من الأمطار الخفيفة

TAF: PTSA 272339Z 2800/2824 06008KT P6SM VCSH SCT018 BKN100 TEMPO 2800/2804 -SHRA BKN018

أرصاد الطقس والتوقعات من أكثر من 4000 مطار (تقارير الطقس للمطار METAR والتنبؤ بالطقس بالمطارTAF).

المحطات المتاحة هي النقط الصفراء والحمراء على الخريطة.

حرك المؤشر فوق النقطة لمعرفة اسم المحطة.

ثم انقر لمعرفة أرصاد وتوقعات الطقس.

لتغيير الخارطة: اضغط على الأزرار الخضراء مع رمز الصليب الأسود للتكبير. على الزر الأخضر مع شرطة للتصغير، أو على الأسهم الخضراء للخرائط المجاورة.


METAR-TAF: